Time;durP1;ratioP1;P1;durP2;ratioP2;P2;SDS_P1;SDS_P2;PMS_P1;PMS_P2;Temp;Humidity;BMP_temperature;BMP_pressure;BME280_temperature;BME280_humidity;BME280_pressure;Samples;Min_cycle;Max_cycle;Signal;HPM_P1;HPM_P2
2023/04/23 00:00:35;;;;;;;4.55;2.60;;;14.50;1.00;;;;;;7364211;19;20049;-69
2023/04/23 00:03:11;;;;;;;3.45;2.53;;;14.50;1.00;;;;;;7367741;19;20011;-69
2023/04/23 00:05:46;;;;;;;4.22;2.63;;;14.50;1.00;;;;;;7367087;19;20013;-69
2023/04/23 00:08:19;;;;;;;4.82;2.70;;;14.50;1.00;;;;;;7365823;19;20010;-69
2023/04/23 00:10:50;;;;;;;5.10;2.30;;;14.50;1.00;;;;;;7365258;19;20035;-69
2023/04/23 00:13:20;;;;;;;4.97;2.20;;;14.50;1.00;;;;;;7389132;19;20086;-68
2023/04/23 00:15:51;;;;;;;4.25;2.63;;;14.40;1.00;;;;;;7367455;19;20021;-68
2023/04/23 00:18:21;;;;;;;7.80;2.85;;;14.50;1.00;;;;;;7364308;19;20007;-68
2023/04/23 00:20:54;;;;;;;3.17;2.25;;;14.50;1.00;;;;;;7365366;19;20364;-68
2023/04/23 00:23:24;;;;;;;4.82;2.65;;;14.50;1.00;;;;;;7369270;19;20007;-69
2023/04/23 00:25:53;;;;;;;3.25;2.47;;;14.50;1.00;;;;;;7374012;19;20462;-69
2023/04/23 00:28:23;;;;;;;4.03;2.55;;;14.40;1.00;;;;;;7392403;19;20578;-69
2023/04/23 00:30:53;;;;;;;3.03;2.20;;;14.40;1.00;;;;;;7370652;19;20024;-69
2023/04/23 00:33:23;;;;;;;6.38;4.53;;;14.40;1.00;;;;;;7372310;19;20462;-69
2023/04/23 00:35:56;;;;;;;5.57;2.47;;;14.40;1.00;;;;;;7373752;19;20014;-68
2023/04/23 00:38:26;;;;;;;4.53;2.17;;;14.40;1.00;;;;;;7369978;19;20751;-68
2023/04/23 00:40:56;;;;;;;6.10;2.88;;;14.40;1.00;;;;;;7369790;19;20077;-68
2023/04/23 00:43:40;;;;;;;5.55;2.42;;;14.30;1.00;;;;;;7393894;19;20044;-69
2023/04/23 00:46:10;;;;;;;4.00;2.40;;;14.30;1.00;;;;;;7372898;19;20684;-70
2023/04/23 00:48:41;;;;;;;7.22;2.92;;;14.20;1.00;;;;;;7370236;19;20041;-70
2023/04/23 00:51:14;;;;;;;4.03;2.47;;;14.10;1.00;;;;;;7372448;19;20093;-69
2023/04/23 00:53:44;;;;;;;4.60;2.85;;;14.10;1.00;;;;;;7372535;19;20018;-69
2023/04/23 00:56:14;;;;;;;6.03;2.60;;;14.10;1.00;;;;;;7373256;19;20015;-68
2023/04/23 00:58:44;;;;;;;4.50;2.70;;;14.00;1.00;;;;;;7391838;19;20541;-69
2023/04/23 01:01:14;;;;;;;6.13;2.78;;;13.80;1.00;;;;;;7372343;19;20014;-68
2023/04/23 01:03:44;;;;;;;3.08;2.60;;;13.60;1.00;;;;;;7371169;19;20391;-69
2023/04/23 01:06:17;;;;;;;6.63;3.88;;;13.50;1.00;;;;;;7373477;19;21878;-68
2023/04/23 01:08:49;;;;;;;5.28;3.53;;;13.30;1.00;;;;;;7370840;19;20029;-69
2023/04/23 01:11:19;;;;;;;4.90;3.35;;;13.20;1.00;;;;;;7372420;19;20359;-70
2023/04/23 01:13:48;;;;;;;6.15;3.78;;;13.10;1.00;;;;;;7371520;19;20019;-70
2023/04/23 01:16:18;;;;;;;6.10;4.43;;;13.10;1.00;;;;;;7394447;19;20010;-70
2023/04/23 01:18:48;;;;;;;7.60;4.18;;;13.00;1.00;;;;;;7369589;19;20015;-69
2023/04/23 01:21:21;;;;;;;6.88;4.00;;;13.10;1.00;;;;;;7371987;19;20042;-70
2023/04/23 01:23:54;;;;;;;6.20;4.13;;;13.10;1.00;;;;;;7371936;19;20010;-68
2023/04/23 01:26:25;;;;;;;8.20;4.38;;;13.00;1.00;;;;;;7371518;19;20006;-69
2023/04/23 01:28:56;;;;;;;7.07;4.68;;;13.00;1.00;;;;;;7370159;19;20014;-69
2023/04/23 01:31:26;;;;;;;6.03;4.28;;;12.90;1.10;;;;;;7392639;19;20030;-69
2023/04/23 01:33:57;;;;;;;7.10;4.57;;;12.90;2.30;;;;;;7370520;19;20013;-69
2023/04/23 01:36:27;;;;;;;5.82;4.35;;;12.90;2.80;;;;;;7370670;19;20364;-68
2023/04/23 01:39:00;;;;;;;6.45;4.75;;;12.90;3.40;;;;;;7367440;19;20383;-70
2023/04/23 01:41:30;;;;;;;6.18;4.60;;;13.00;3.80;;;;;;7370735;19;20018;-69
2023/04/23 01:44:01;;;;;;;8.07;4.47;;;12.90;3.20;;;;;;7370858;19;20520;-69
2023/04/23 01:46:31;;;;;;;6.53;4.65;;;12.90;4.60;;;;;;7392692;19;20088;-69
2023/04/23 01:49:01;;;;;;;6.30;4.53;;;12.90;3.70;;;;;;7368460;19;20025;-69
2023/04/23 01:51:31;;;;;;;6.20;4.25;;;12.90;4.60;;;;;;7370256;19;20090;-69
2023/04/23 01:54:04;;;;;;;8.40;4.53;;;12.90;5.10;;;;;;7370277;19;20018;-68
2023/04/23 01:56:34;;;;;;;5.72;4.20;;;12.90;5.40;;;;;;7371717;19;20013;-68
2023/04/23 01:59:06;;;;;;;5.63;4.35;;;12.90;6.40;;;;;;7368376;19;20478;-69
2023/04/23 02:01:46;;;;;;;6.25;4.47;;;12.90;5.50;;;;;;7392483;19;20515;-69
2023/04/23 02:04:17;;;;;;;5.20;4.03;;;12.90;4.70;;;;;;7370589;19;20400;-68
2023/04/23 02:06:51;;;;;;;6.82;4.88;;;12.90;5.30;;;;;;7371358;19;20082;-69
2023/04/23 02:09:23;;;;;;;7.13;4.15;;;12.90;5.40;;;;;;7361811;19;20512;-69
2023/04/23 02:11:53;;;;;;;6.45;4.22;;;12.90;6.00;;;;;;7371430;19;20010;-69
2023/04/23 02:14:23;;;;;;;4.95;3.90;;;12.90;5.00;;;;;;7370631;19;20017;-68
2023/04/23 02:16:53;;;;;;;5.47;3.70;;;12.80;5.30;;;;;;7370863;19;20006;-69
2023/04/23 02:19:23;;;;;;;4.95;3.88;;;12.80;6.60;;;;;;7388723;19;20021;-69
2023/04/23 02:21:53;;;;;;;7.60;4.00;;;12.70;6.90;;;;;;7370051;19;20014;-68
2023/04/23 02:24:25;;;;;;;6.55;4.47;;;12.60;8.10;;;;;;7369070;19;20018;-68
2023/04/23 02:26:56;;;;;;;6.82;3.92;;;12.60;8.70;;;;;;7370895;19;20015;-69
2023/04/23 02:29:26;;;;;;;6.00;4.55;;;12.60;8.90;;;;;;7367753;19;20006;-68
2023/04/23 02:31:56;;;;;;;7.65;4.35;;;12.70;10.80;;;;;;7371130;19;20018;-69
2023/04/23 02:34:26;;;;;;;6.35;4.57;;;12.70;10.60;;;;;;7389664;19;20010;-70
2023/04/23 02:36:56;;;;;;;6.47;4.93;;;12.80;11.90;;;;;;7369198;19;20010;-70
2023/04/23 02:39:29;;;;;;;6.13;4.60;;;12.80;12.20;;;;;;7367227;19;20509;-69
2023/04/23 02:41:59;;;;;;;7.47;4.63;;;12.70;13.40;;;;;;7369841;19;20749;-69
2023/04/23 02:44:29;;;;;;;4.75;4.18;;;12.60;15.00;;;;;;7368355;19;20011;-70
2023/04/23 02:46:59;;;;;;;7.32;4.57;;;12.60;15.50;;;;;;7367019;19;20018;-69
2023/04/23 02:49:29;;;;;;;7.30;4.75;;;12.60;16.90;;;;;;7387252;19;20413;-69
2023/04/23 02:51:59;;;;;;;8.02;5.32;;;12.60;18.60;;;;;;7368892;19;20018;-69
2023/04/23 02:54:32;;;;;;;7.00;5.85;;;12.50;19.40;;;;;;7368019;19;20010;-69
2023/04/23 02:57:02;;;;;;;11.80;5.90;;;12.50;21.30;;;;;;7368465;19;20107;-69
2023/04/23 02:59:31;;;;;;;10.00;5.68;;;12.50;23.30;;;;;;7366163;19;20030;-69
2023/04/23 03:02:02;;;;;;;10.80;5.38;;;12.50;24.90;;;;;;7369212;19;20018;-68
2023/04/23 03:04:32;;;;;;;9.10;5.30;;;12.30;24.60;;;;;;7389311;19;20019;-69
2023/04/23 03:07:03;;;;;;;11.68;5.60;;;12.30;24.50;;;;;;7367862;19;20557;-68
2023/04/23 03:09:35;;;;;;;10.27;5.85;;;12.30;26.50;;;;;;7366415;19;20013;-69
2023/04/23 03:12:05;;;;;;;10.13;5.18;;;12.30;27.10;;;;;;7369399;19;20109;-68
2023/04/23 03:14:35;;;;;;;9.35;5.13;;;12.30;28.20;;;;;;7367928;19;20544;-69
2023/04/23 03:17:05;;;;;;;9.05;5.85;;;12.30;29.40;;;;;;7367902;19;20018;-68
2023/04/23 03:19:35;;;;;;;8.35;5.35;;;12.30;29.10;;;;;;7387380;19;20014;-69
2023/04/23 03:22:05;;;;;;;10.45;4.85;;;12.20;29.90;;;;;;7368192;19;20003;-68
2023/04/23 03:24:37;;;;;;;9.73;5.10;;;12.10;30.60;;;;;;7366784;19;20019;-70
2023/04/23 03:27:08;;;;;;;5.70;4.32;;;12.00;30.60;;;;;;7367700;19;20090;-67
2023/04/23 03:29:37;;;;;;;8.90;4.88;;;12.00;31.40;;;;;;7365053;19;20501;-69
2023/04/23 03:32:07;;;;;;;7.00;4.20;;;12.00;30.90;;;;;;7367843;19;20014;-68
2023/04/23 03:34:37;;;;;;;5.05;4.40;;;12.00;31.40;;;;;;7388937;19;20022;-69
2023/04/23 03:37:07;;;;;;;5.60;4.00;;;12.00;30.90;;;;;;7366386;19;20026;-68
2023/04/23 03:39:40;;;;;;;6.10;4.55;;;12.00;31.10;;;;;;7365735;19;20089;-68
2023/04/23 03:42:10;;;;;;;5.35;3.97;;;12.00;29.90;;;;;;7367271;19;20349;-68
2023/04/23 03:44:40;;;;;;;5.53;4.18;;;12.00;30.00;;;;;;7367854;19;20007;-68
2023/04/23 03:47:10;;;;;;;5.72;4.35;;;12.00;30.20;;;;;;7366828;19;20475;-68
2023/04/23 03:49:41;;;;;;;5.88;3.90;;;12.00;29.80;;;;;;7387619;19;20025;-69
2023/04/23 03:52:10;;;;;;;8.13;4.30;;;11.90;32.00;;;;;;7367580;19;20010;-69
2023/04/23 03:54:43;;;;;;;6.88;4.45;;;11.90;33.30;;;;;;7366865;19;20007;-69
2023/04/23 03:57:13;;;;;;;6.75;4.30;;;12.00;34.70;;;;;;7367024;19;20299;-69
2023/04/23 03:59:43;;;;;;;5.47;3.83;;;12.00;34.80;;;;;;7372819;19;20478;-69
2023/04/23 04:02:13;;;;;;;5.82;4.25;;;12.00;34.80;;;;;;7373329;19;20045;-69
2023/04/23 04:04:44;;;;;;;6.43;4.47;;;12.00;34.50;;;;;;7397059;19;20025;-69
2023/04/23 04:07:15;;;;;;;5.40;4.20;;;12.00;34.40;;;;;;7373753;19;20006;-69
2023/04/23 04:09:48;;;;;;;6.30;4.13;;;12.10;34.80;;;;;;7372452;19;20020;-69
2023/04/23 04:12:18;;;;;;;6.47;4.45;;;12.10;34.70;;;;;;7374756;19;20034;-68
2023/04/23 04:14:48;;;;;;;5.75;4.32;;;12.00;34.60;;;;;;7373557;19;20089;-69
2023/04/23 04:17:17;;;;;;;5.70;4.13;;;12.00;33.80;;;;;;7373521;19;20478;-69
2023/04/23 04:19:47;;;;;;;4.85;4.22;;;11.90;34.50;;;;;;7379681;19;20042;-69
2023/04/23 04:22:17;;;;;;;6.07;4.13;;;11.80;35.40;;;;;;7394077;19;20360;-69
2023/04/23 04:24:50;;;;;;;6.10;4.28;;;11.80;36.50;;;;;;7373773;19;20046;-69
2023/04/23 04:27:20;;;;;;;5.53;3.50;;;11.80;37.50;;;;;;7371053;19;20007;-68
2023/04/23 04:29:50;;;;;;;3.90;3.50;;;11.80;37.80;;;;;;7370930;19;20082;-71
2023/04/23 04:32:21;;;;;;;6.80;3.70;;;11.70;37.50;;;;;;7374627;19;20035;-69
2023/04/23 04:34:51;;;;;;;4.20;3.53;;;11.80;36.90;;;;;;7373102;19;20014;-69
2023/04/23 04:37:21;;;;;;;5.22;3.38;;;11.70;35.90;;;;;;7393867;19;20050;-69
2023/04/23 04:39:54;;;;;;;4.10;3.70;;;11.70;35.20;;;;;;7370300;19;20014;-69
2023/04/23 04:42:24;;;;;;;4.15;3.40;;;11.70;35.00;;;;;;7372828;19;20010;-69
2023/04/23 04:44:57;;;;;;;3.78;2.85;;;11.70;34.20;;;;;;7372876;19;20010;-68
2023/04/23 04:47:27;;;;;;;6.40;3.05;;;11.60;32.90;;;;;;7372108;19;20007;-68
2023/04/23 04:49:58;;;;;;;4.28;2.83;;;11.60;32.70;;;;;;7370615;19;20030;-69
2023/04/23 04:52:28;;;;;;;4.50;2.90;;;11.60;33.70;;;;;;7394824;19;20482;-69
2023/04/23 04:55:01;;;;;;;5.75;3.00;;;11.60;32.50;;;;;;7371838;19;20014;-68
2023/04/23 04:57:31;;;;;;;4.72;2.83;;;11.60;32.90;;;;;;7371183;19;20015;-69
2023/04/23 05:00:05;;;;;;;3.88;2.60;;;11.70;32.70;;;;;;7370393;19;20142;-69
2023/04/23 05:02:35;;;;;;;2.40;2.20;;;11.90;31.10;;;;;;7370592;19;20387;-69
2023/04/23 05:05:06;;;;;;;2.92;2.20;;;11.90;30.00;;;;;;7372424;19;20019;-68
2023/04/23 05:07:36;;;;;;;3.83;2.03;;;12.00;29.40;;;;;;7392975;19;20078;-69
2023/04/23 05:10:09;;;;;;;3.33;2.42;;;11.90;28.10;;;;;;7368697;19;20521;-70
2023/04/23 05:12:40;;;;;;;3.97;2.67;;;12.00;28.20;;;;;;7371880;19;20025;-68
2023/04/23 05:15:12;;;;;;;3.58;2.33;;;12.00;29.10;;;;;;7372186;19;20115;-69
2023/04/23 05:17:42;;;;;;;3.72;2.53;;;12.00;27.90;;;;;;7371697;19;20438;-69
2023/04/23 05:20:13;;;;;;;3.75;2.40;;;12.10;26.90;;;;;;7370984;19;20010;-69
2023/04/23 05:22:44;;;;;;;4.25;2.50;;;12.50;25.00;;;;;;7392131;19;20033;-69
2023/04/23 05:25:17;;;;;;;4.22;2.25;;;12.60;24.70;;;;;;7371144;19;20006;-69
2023/04/23 05:27:47;;;;;;;2.60;1.95;;;12.60;21.00;;;;;;7369887;19;20497;-69
2023/04/23 05:30:17;;;;;;;4.55;2.20;;;12.60;20.10;;;;;;7369320;19;21417;-68
2023/04/23 05:32:47;;;;;;;3.55;2.10;;;12.90;19.40;;;;;;7372643;19;20011;-68
2023/04/23 05:35:17;;;;;;;2.67;2.10;;;13.30;17.40;;;;;;7371359;19;20021;-69
2023/04/23 05:37:46;;;;;;;3.17;2.00;;;13.00;17.50;;;;;;7391738;19;20018;-69
2023/04/23 05:40:19;;;;;;;2.00;1.80;;;13.00;18.80;;;;;;7369525;19;20006;-69
2023/04/23 05:42:49;;;;;;;1.95;1.67;;;12.90;18.70;;;;;;7369388;19;20379;-70
2023/04/23 05:45:19;;;;;;;3.20;1.98;;;12.90;19.00;;;;;;7371436;19;20087;-68
2023/04/23 05:47:50;;;;;;;4.03;2.15;;;12.70;17.90;;;;;;7369025;19;20082;-68
2023/04/23 05:50:20;;;;;;;2.38;1.98;;;12.80;19.40;;;;;;7368796;19;20014;-69
2023/04/23 05:52:50;;;;;;;3.33;2.08;;;12.80;18.50;;;;;;7371379;19;20043;-69
2023/04/23 05:55:23;;;;;;;2.92;2.00;;;12.70;17.00;;;;;;7391415;19;20090;-69
2023/04/23 05:57:53;;;;;;;2.85;2.58;;;12.80;18.30;;;;;;7368666;19;20007;-68
2023/04/23 06:00:23;;;;;;;3.35;2.05;;;12.70;19.80;;;;;;7367225;19;20010;-69
2023/04/23 06:02:53;;;;;;;2.08;1.88;;;12.80;20.50;;;;;;7370104;19;20015;-68
2023/04/23 06:05:23;;;;;;;3.28;1.85;;;12.80;17.30;;;;;;7369532;19;20546;-69
2023/04/23 06:07:53;;;;;;;2.72;1.65;;;12.90;17.30;;;;;;7369181;19;20379;-69
2023/04/23 06:10:25;;;;;;;1.60;1.50;;;12.90;15.40;;;;;;7389998;19;20025;-68
2023/04/23 06:12:55;;;;;;;3.33;1.80;;;13.00;15.40;;;;;;7370150;19;20070;-70
2023/04/23 06:15:26;;;;;;;2.25;1.67;;;13.00;13.50;;;;;;7369492;19;20054;-67
2023/04/23 06:17:56;;;;;;;2.35;1.42;;;13.00;14.10;;;;;;7368713;19;20031;-68
2023/04/23 06:20:26;;;;;;;1.55;1.20;;;13.10;10.50;;;;;;7364801;19;20414;-70
2023/04/23 06:22:56;;;;;;;2.92;1.42;;;13.10;10.00;;;;;;7368648;19;20014;-68
2023/04/23 06:25:29;;;;;;;2.05;1.40;;;13.00;11.70;;;;;;7391548;19;20011;-69
2023/04/23 06:27:59;;;;;;;3.08;1.70;;;13.30;12.10;;;;;;7367879;19;20090;-69
2023/04/23 06:30:29;;;;;;;1.60;1.33;;;13.40;10.10;;;;;;7367901;19;20958;-69
2023/04/23 06:32:59;;;;;;;1.40;1.30;;;13.70;8.80;;;;;;7369770;19;20018;-69
2023/04/23 06:35:29;;;;;;;1.92;1.27;;;13.90;5.40;;;;;;7369116;19;20006;-69
2023/04/23 06:37:59;;;;;;;1.80;1.20;;;13.80;2.90;;;;;;7366998;19;20010;-68
2023/04/23 06:40:31;;;;;;;1.50;1.40;;;13.70;1.00;;;;;;7389064;19;20002;-68
2023/04/23 06:43:03;;;;;;;1.00;0.90;;;13.80;2.90;;;;;;7368494;19;20007;-68
2023/04/23 06:45:34;;;;;;;2.00;1.17;;;13.90;1.00;;;;;;7368985;19;20010;-68
2023/04/23 06:48:04;;;;;;;1.83;1.00;;;14.00;1.00;;;;;;7368056;19;20011;-68
2023/04/23 06:50:33;;;;;;;1.45;1.20;;;14.00;1.00;;;;;;7368066;19;20013;-69
2023/04/23 06:53:03;;;;;;;1.15;1.05;;;13.90;1.00;;;;;;7369252;19;20010;-69
2023/04/23 06:55:36;;;;;;;2.75;1.48;;;14.00;1.00;;;;;;7389963;19;20367;-69
2023/04/23 06:58:06;;;;;;;3.53;1.10;;;14.10;1.00;;;;;;7366617;19;20111;-69
2023/04/23 07:00:36;;;;;;;2.10;1.13;;;14.30;1.00;;;;;;7368534;19;20481;-69
2023/04/23 07:03:06;;;;;;;4.32;2.90;;;14.30;1.00;;;;;;7368676;19;20073;-67
2023/04/23 07:05:36;;;;;;;1.73;1.58;;;14.30;1.00;;;;;;7368912;19;20017;-69
2023/04/23 07:08:06;;;;;;;2.72;1.50;;;14.60;1.00;;;;;;7366933;19;20015;-68
2023/04/23 07:10:38;;;;;;;1.30;1.20;;;15.10;1.00;;;;;;7388095;19;20510;-68
2023/04/23 07:13:08;;;;;;;1.55;1.40;;;15.00;1.00;;;;;;7368331;19;20084;-69
2023/04/23 07:15:38;;;;;;;1.65;1.45;;;15.10;1.00;;;;;;7366922;19;20018;-68
2023/04/23 07:18:08;;;;;;;2.15;1.55;;;15.10;1.00;;;;;;7365734;19;20017;-69
2023/04/23 07:20:39;;;;;;;1.95;1.15;;;15.40;1.00;;;;;;7367254;19;20002;-69
2023/04/23 07:23:08;;;;;;;2.78;1.60;;;15.60;1.00;;;;;;7367492;19;20014;-69
2023/04/23 07:25:41;;;;;;;1.35;1.23;;;15.70;1.00;;;;;;7390670;19;20015;-68
2023/04/23 07:28:11;;;;;;;1.52;0.95;;;15.40;1.00;;;;;;7366330;19;20007;-69
2023/04/23 07:30:41;;;;;;;1.17;0.80;;;15.60;1.00;;;;;;7367332;19;20017;-68
2023/04/23 07:33:11;;;;;;;0.98;0.73;;;15.90;1.00;;;;;;7374365;19;20011;-69
2023/04/23 07:35:40;;;;;;;1.80;0.80;;;15.80;1.00;;;;;;7374898;19;20002;-69
2023/04/23 07:38:10;;;;;;;1.10;0.95;;;15.20;1.00;;;;;;7374521;19;20010;-69
2023/04/23 07:40:43;;;;;;;2.45;1.02;;;15.00;1.00;;;;;;7394336;19;20467;-68
2023/04/23 07:43:13;;;;;;;2.95;0.85;;;14.80;1.00;;;;;;7374340;19;19998;-69
2023/04/23 07:45:43;;;;;;;2.28;1.15;;;14.90;1.00;;;;;;7374459;19;20006;-68
2023/04/23 07:48:13;;;;;;;2.67;1.23;;;15.10;1.00;;;;;;7373607;19;20003;-68
2023/04/23 07:50:44;;;;;;;2.33;1.20;;;15.50;1.00;;;;;;7373657;19;20046;-68
2023/04/23 07:53:14;;;;;;;1.83;1.30;;;15.60;1.00;;;;;;7375485;19;20090;-68
2023/04/23 07:55:46;;;;;;;2.05;1.13;;;15.80;1.00;;;;;;7395481;19;20368;-69
2023/04/23 07:58:16;;;;;;;2.70;1.40;;;15.70;1.00;;;;;;7372790;19;20056;-70
2023/04/23 08:00:46;;;;;;;2.60;1.08;;;15.60;1.00;;;;;;7373328;19;20026;-69
2023/04/23 08:03:16;;;;;;;1.30;1.20;;;15.50;1.00;;;;;;7374086;19;20012;-68
2023/04/23 08:05:46;;;;;;;1.30;1.20;;;15.40;1.00;;;;;;7374555;19;20078;-69
2023/04/23 08:08:16;;;;;;;1.73;1.55;;;15.50;1.00;;;;;;7372030;19;20011;-68
2023/04/23 08:10:49;;;;;;;1.40;1.30;;;15.20;1.00;;;;;;7393577;19;20354;-69
2023/04/23 08:13:19;;;;;;;2.40;1.90;;;15.10;1.00;;;;;;7374133;19;20477;-69
2023/04/23 08:15:50;;;;;;;1.45;1.10;;;15.60;1.00;;;;;;7373695;19;20010;-68
2023/04/23 08:18:20;;;;;;;3.45;1.48;;;15.60;1.00;;;;;;7371399;19;20014;-69
2023/04/23 08:20:51;;;;;;;1.92;1.42;;;15.80;1.00;;;;;;7372826;19;20020;-70
2023/04/23 08:23:21;;;;;;;2.63;1.50;;;16.00;1.00;;;;;;7373129;19;20299;-68
2023/04/23 08:25:53;;;;;;;1.73;1.40;;;15.90;1.00;;;;;;7379053;19;20427;-69
2023/04/23 08:28:23;;;;;;;2.13;1.48;;;16.00;1.00;;;;;;7393726;19;20018;-67
2023/04/23 08:30:53;;;;;;;2.10;1.42;;;16.60;1.00;;;;;;7372330;19;20078;-68
2023/04/23 08:33:23;;;;;;;2.13;1.50;;;16.60;1.00;;;;;;7372664;19;20338;-69
2023/04/23 08:35:54;;;;;;;1.80;1.30;;;16.50;1.00;;;;;;7373622;19;20018;-69
2023/04/23 08:38:24;;;;;;;3.60;1.40;;;16.30;1.00;;;;;;7371553;19;20061;-69
2023/04/23 08:40:59;;;;;;;2.10;1.40;;;16.00;1.00;;;;;;7371151;19;20018;-70
2023/04/23 08:43:45;;;;;;;1.42;1.20;;;16.00;1.00;;;;;;7392278;19;20018;-70
2023/04/23 08:46:16;;;;;;;1.58;1.30;;;16.20;1.00;;;;;;7374069;19;20648;-69
2023/04/23 08:48:46;;;;;;;1.85;1.40;;;16.50;1.00;;;;;;7370044;19;20418;-69
2023/04/23 08:51:20;;;;;;;1.90;1.70;;;17.00;1.00;;;;;;7373388;19;20011;-69
2023/04/23 08:53:54;;;;;;;4.72;2.03;;;16.40;1.00;;;;;;7372599;19;20014;-68
2023/04/23 08:56:28;;;;;;;1.63;1.42;;;15.80;1.00;;;;;;7373035;19;20006;-69
2023/04/23 08:58:58;;;;;;;3.42;1.85;;;16.10;1.00;;;;;;7371175;19;20018;-69
2023/04/23 09:01:28;;;;;;;1.95;1.42;;;16.00;1.00;;;;;;7394107;19;20010;-69
2023/04/23 09:03:58;;;;;;;2.25;1.40;;;16.30;1.00;;;;;;7370453;19;20014;-68
2023/04/23 09:06:30;;;;;;;1.63;1.40;;;16.30;1.00;;;;;;7372038;19;21515;-69
2023/04/23 09:09:01;;;;;;;11.45;1.80;;;16.60;1.00;;;;;;7369517;19;20014;-69
2023/04/23 09:11:33;;;;;;;4.05;1.50;;;16.80;1.00;;;;;;7363548;19;20362;-69
2023/04/23 09:14:03;;;;;;;3.05;1.50;;;16.80;1.00;;;;;;7371526;19;20010;-69
2023/04/23 09:16:33;;;;;;;1.90;1.35;;;16.50;1.00;;;;;;7393666;19;20014;-68
2023/04/23 09:19:04;;;;;;;4.18;1.50;;;16.90;1.00;;;;;;7370304;19;20018;-67
2023/04/23 09:21:34;;;;;;;3.53;2.00;;;17.10;1.00;;;;;;7371871;19;20021;-68
2023/04/23 09:24:06;;;;;;;2.55;2.03;;;17.00;1.00;;;;;;7370903;19;20388;-70
2023/04/23 09:26:47;;;;;;;3.95;1.90;;;16.80;1.00;;;;;;7371222;19;20006;-68
2023/04/23 09:29:18;;;;;;;2.55;1.83;;;16.80;1.00;;;;;;7370811;19;20328;-69
2023/04/23 09:31:49;;;;;;;3.13;2.10;;;17.00;1.00;;;;;;7394958;19;20015;-69
2023/04/23 09:34:19;;;;;;;3.83;2.00;;;17.00;1.00;;;;;;7370270;19;19999;-69
2023/04/23 09:36:51;;;;;;;2.53;2.15;;;16.90;1.00;;;;;;7370476;19;20101;-69
2023/04/23 09:39:24;;;;;;;3.40;2.30;;;16.60;1.00;;;;;;7368852;19;20021;-69
2023/04/23 09:42:03;;;;;;;1.75;1.65;;;16.70;1.00;;;;;;7370866;19;20021;-68
2023/04/23 09:44:34;;;;;;;5.43;2.17;;;16.80;1.00;;;;;;7369059;19;20036;-68
2023/04/23 09:47:13;;;;;;;2.78;1.77;;;16.60;1.00;;;;;;7370254;19;20010;-69
2023/04/23 09:49:48;;;;;;;2.28;1.77;;;16.80;1.00;;;;;;7391566;19;20011;-68
2023/04/23 09:52:18;;;;;;;3.20;1.80;;;17.20;1.00;;;;;;7371185;19;20021;-69
2023/04/23 09:54:48;;;;;;;2.40;1.70;;;17.20;1.00;;;;;;7369469;19;20414;-69
2023/04/23 09:57:21;;;;;;;3.10;1.80;;;17.40;1.00;;;;;;7369971;19;20013;-68
2023/04/23 09:59:51;;;;;;;2.65;1.80;;;17.30;1.00;;;;;;7369833;19;20014;-70
2023/04/23 10:02:40;;;;;;;;;;;17.10;1.00;;;;;;7371014;19;20011;-69
2023/04/23 10:05:16;;;;;;;2.42;1.80;;;17.50;1.00;;;;;;7368939;19;19924;-69
2023/04/23 10:07:55;;;;;;;3.00;1.40;;;17.20;1.00;;;;;;7368642;19;20689;-68
2023/04/23 10:10:26;;;;;;;2.33;1.70;;;17.80;1.00;;;;;;7389936;19;20015;-69
2023/04/23 10:13:00;;;;;;;1.75;1.42;;;18.20;1.00;;;;;;7370001;19;20037;-68
2023/04/23 10:15:30;;;;;;;2.40;2.20;;;18.10;1.00;;;;;;7370385;19;20011;-69
2023/04/23 10:18:00;;;;;;;2.05;1.27;;;17.80;1.00;;;;;;7368705;19;20078;-70
2023/04/23 10:20:30;;;;;;;1.80;1.50;;;17.60;1.00;;;;;;7368840;19;20465;-69
2023/04/23 10:23:02;;;;;;;1.73;1.30;;;17.80;1.00;;;;;;7369810;19;20014;-70
2023/04/23 10:25:33;;;;;;;2.72;1.45;;;17.40;1.00;;;;;;7390575;19;20011;-69
2023/04/23 10:28:10;;;;;;;2.83;1.63;;;18.10;1.00;;;;;;7367798;19;20014;-70
2023/04/23 10:30:41;;;;;;;1.63;1.33;;;18.70;1.00;;;;;;7369713;19;20073;-69
2023/04/23 10:33:12;;;;;;;1.88;1.45;;;18.30;1.00;;;;;;7370895;19;20030;-69
2023/04/23 10:35:58;;;;;;;4.03;1.75;;;18.30;1.00;;;;;;7369665;19;20548;-69
2023/04/23 10:38:29;;;;;;;2.40;1.50;;;18.80;1.00;;;;;;7367360;19;20015;-70
2023/04/23 10:41:02;;;;;;;2.70;1.52;;;18.90;1.00;;;;;;7367243;19;20018;-69
2023/04/23 10:43:35;;;;;;;4.77;2.00;;;18.60;1.00;;;;;;7390497;19;20012;-69
2023/04/23 10:46:05;;;;;;;2.92;1.80;;;18.60;1.00;;;;;;7367181;19;20103;-69
2023/04/23 10:48:53;;;;;;;1.50;1.20;;;19.10;1.00;;;;;;7367342;19;20085;-69
2023/04/23 10:51:34;;;;;;;2.17;1.40;;;18.60;1.00;;;;;;7369400;19;20074;-69
2023/04/23 10:54:29;;;;;;;3.60;1.77;;;18.40;1.00;;;;;;7369069;19;20043;-69
2023/04/23 10:57:03;;;;;;;3.05;1.20;;;18.70;1.00;;;;;;7367361;19;20011;-69
2023/04/23 10:59:39;;;;;;;2.70;1.20;;;18.50;1.00;;;;;;7367900;19;20007;-69
2023/04/23 11:02:12;;;;;;;2.20;1.23;;;18.80;1.00;;;;;;7368686;19;20011;-69
2023/04/23 11:04:46;;;;;;;3.65;1.00;;;19.00;1.00;;;;;;7389051;19;20015;-70
2023/04/23 11:07:16;;;;;;;1.30;1.15;;;19.30;1.00;;;;;;7366141;19;20032;-69
2023/04/23 11:09:48;;;;;;;2.17;1.10;;;18.40;1.00;;;;;;7366767;19;20038;-68
2023/04/23 11:12:33;;;;;;;3.05;1.10;;;19.20;1.00;;;;;;7368767;19;20006;-68
2023/04/23 11:15:15;;;;;;;1.63;0.82;;;19.90;1.00;;;;;;7368010;19;20467;-70
2023/04/23 11:18:03;;;;;;;2.45;1.20;;;19.60;1.00;;;;;;7367157;19;20110;-70
2023/04/23 11:20:33;;;;;;;2.70;1.60;;;19.70;1.00;;;;;;7367003;19;20011;-70
2023/04/23 11:23:03;;;;;;;1.38;0.80;;;19.70;1.00;;;;;;7368906;19;20021;-70
2023/04/23 11:25:33;;;;;;;1.45;1.00;;;19.20;1.00;;;;;;7388398;19;20503;-70
2023/04/23 11:28:03;;;;;;;2.60;0.98;;;19.20;1.00;;;;;;7366232;19;20018;-67
2023/04/23 11:30:36;;;;;;;0.85;0.75;;;19.70;1.00;;;;;;7367249;19;20020;-70
2023/04/23 11:33:07;;;;;;;1.40;1.00;;;19.20;1.00;;;;;;7367413;19;20014;-70
2023/04/23 11:35:39;;;;;;;1.10;0.93;;;19.50;1.00;;;;;;7367919;19;20022;-69
2023/04/23 11:38:10;;;;;;;1.90;0.80;;;19.70;1.00;;;;;;7366184;19;20010;-70
2023/04/23 11:40:41;;;;;;;2.33;1.00;;;19.00;1.00;;;;;;7387698;19;20014;-69
2023/04/23 11:43:13;;;;;;;1.25;0.75;;;19.10;1.00;;;;;;7367814;19;20475;-68
2023/04/23 11:45:48;;;;;;;1.00;0.80;;;19.20;1.00;;;;;;7366332;19;20011;-68
2023/04/23 11:48:19;;;;;;;0.93;0.80;;;19.90;1.00;;;;;;7365459;19;20892;-69
2023/04/23 11:50:49;;;;;;;2.45;0.88;;;20.00;1.00;;;;;;7366176;19;20017;-68
2023/04/23 11:53:20;;;;;;;1.17;0.88;;;20.20;1.00;;;;;;7368553;19;20097;-70
2023/04/23 11:55:50;;;;;;;1.75;0.80;;;19.30;1.00;;;;;;7383084;19;20018;-69
2023/04/23 11:58:20;;;;;;;2.35;1.00;;;19.00;1.00;;;;;;7386891;19;20033;-69
2023/04/23 12:00:59;;;;;;;1.55;0.80;;;19.90;1.00;;;;;;7365984;19;20022;-70
2023/04/23 12:03:29;;;;;;;1.15;0.80;;;20.30;1.00;;;;;;7365535;19;20020;-70
2023/04/23 12:06:00;;;;;;;1.85;0.60;;;20.50;1.00;;;;;;7368294;19;20034;-69
2023/04/23 12:08:34;;;;;;;1.23;0.60;;;20.90;1.00;;;;;;7366531;19;20082;-68
2023/04/23 12:11:05;;;;;;;0.70;0.57;;;19.80;1.00;;;;;;7365235;19;20019;-69
2023/04/23 12:13:36;;;;;;;1.13;0.68;;;20.30;1.00;;;;;;7388582;19;20035;-69
2023/04/23 12:16:08;;;;;;;0.75;0.60;;;20.80;1.00;;;;;;7366412;19;20482;-70
2023/04/23 12:18:43;;;;;;;0.80;0.57;;;20.90;1.00;;;;;;7367241;19;20352;-69
2023/04/23 12:21:14;;;;;;;3.40;0.80;;;20.70;1.00;;;;;;7372894;19;20034;-69
2023/04/23 12:23:45;;;;;;;2.35;0.90;;;20.90;1.00;;;;;;7374332;19;20849;-69
2023/04/23 12:26:20;;;;;;;2.20;0.60;;;21.00;1.00;;;;;;7372834;19;20473;-70
2023/04/23 12:28:52;;;;;;;1.63;0.57;;;21.10;1.00;;;;;;7392814;19;20015;-70
2023/04/23 12:31:26;;;;;;;0.70;0.50;;;21.40;1.00;;;;;;7394639;19;20014;-69
2023/04/23 12:34:00;;;;;;;1.00;0.68;;;21.30;1.00;;;;;;7372651;19;20006;-69
2023/04/23 12:36:31;;;;;;;;;;;21.40;1.00;;;;;;7372119;19;20014;-69
2023/04/23 12:39:28;;;;;;;0.80;0.68;;;21.60;1.00;;;;;;7371434;19;20298;-69
2023/04/23 12:42:03;;;;;;;0.90;0.55;;;21.50;1.00;;;;;;7373329;19;20047;-69
2023/04/23 12:44:35;;;;;;;1.73;0.73;;;21.40;1.00;;;;;;7372854;19;20031;-70
2023/04/23 12:47:09;;;;;;;0.77;0.68;;;21.60;1.00;;;;;;7370050;19;20050;-70
2023/04/23 12:49:42;;;;;;;1.38;0.80;;;21.50;1.00;;;;;;7393368;19;20018;-68
2023/04/23 12:52:13;;;;;;;1.92;0.80;;;21.40;1.00;;;;;;7372465;19;20014;-70
2023/04/23 12:54:43;;;;;;;1.92;0.95;;;21.00;1.00;;;;;;7371899;19;20086;-69
2023/04/23 12:57:14;;;;;;;2.70;1.20;;;20.70;1.00;;;;;;7371335;19;20793;-70
2023/04/23 12:59:44;;;;;;;2.60;1.15;;;20.90;1.00;;;;;;7370987;19;20010;-68
2023/04/23 13:02:16;;;;;;;1.20;0.77;;;21.00;1.00;;;;;;7373706;19;20015;-69
2023/04/23 13:04:46;;;;;;;1.10;0.82;;;21.10;1.00;;;;;;7394146;19;20044;-69
2023/04/23 13:07:17;;;;;;;3.63;1.17;;;20.50;1.00;;;;;;7369357;19;20017;-69
2023/04/23 13:09:46;;;;;;;2.35;1.02;;;20.60;1.00;;;;;;7370112;19;20011;-69
2023/04/23 13:12:16;;;;;;;1.17;0.88;;;20.20;1.00;;;;;;7372934;19;20002;-69
2023/04/23 13:14:46;;;;;;;1.92;0.77;;;20.20;1.00;;;;;;7372315;19;20015;-69
2023/04/23 13:17:19;;;;;;;1.30;0.77;;;20.20;1.00;;;;;;7369935;19;20500;-70